Time;durP1;ratioP1;P1;durP2;ratioP2;P2;SDS_P1;SDS_P2;PMS_P1;PMS_P2;Temp;Humidity;BMP_temperature;BMP_pressure;BME280_temperature;BME280_humidity;BME280_pressure;Samples;Min_cycle;Max_cycle;Signal;HPM_P1;HPM_P2
2023/09/05 00:02:19;;;;;;;3.03;2.17;;;;;;;;;;4942520;29;20670;-30
2023/09/05 00:04:47;;;;;;;2.50;2.30;;;;;;;;;;4950169;29;20212;-30
2023/09/05 00:07:16;;;;;;;2.30;2.10;;;;;;;;;;4951318;29;20215;-30
2023/09/05 00:09:44;;;;;;;2.30;2.10;;;;;;;;;;4943733;28;20239;-31
2023/09/05 00:12:11;;;;;;;2.40;2.20;;;;;;;;;;4951063;29;20298;-30
2023/09/05 00:14:39;;;;;;;2.20;2.00;;;;;;;;;;4951145;29;20220;-31
2023/09/05 00:17:05;;;;;;;6.30;2.20;;;;;;;;;;4951666;29;20238;-31
2023/09/05 00:19:32;;;;;;;3.10;1.93;;;;;;;;;;4942987;29;20254;-33
2023/09/05 00:21:59;;;;;;;2.87;2.20;;;;;;;;;;4944287;29;20214;-30
2023/09/05 00:24:30;;;;;;;2.43;2.10;;;;;;;;;;4944348;28;20212;-31
2023/09/05 00:26:57;;;;;;;2.37;2.00;;;;;;;;;;4954944;29;20226;-31
2023/09/05 00:29:26;;;;;;;2.10;1.90;;;;;;;;;;4954525;28;20238;-30
2023/09/05 00:31:58;;;;;;;2.17;1.97;;;;;;;;;;4948040;29;20239;-34
2023/09/05 00:34:26;;;;;;;2.43;2.03;;;;;;;;;;4945655;29;20207;-33
2023/09/05 00:36:53;;;;;;;1.83;1.73;;;;;;;;;;4955398;29;20277;-30
2023/09/05 00:39:20;;;;;;;1.97;1.87;;;;;;;;;;4945827;28;20235;-31
2023/09/05 00:41:47;;;;;;;2.17;1.97;;;;;;;;;;4948417;29;20218;-33
2023/09/05 00:44:15;;;;;;;2.27;2.03;;;;;;;;;;4955099;29;20211;-34
2023/09/05 00:46:43;;;;;;;3.07;2.40;;;;;;;;;;4955746;29;20213;-30
2023/09/05 00:49:12;;;;;;;2.37;2.03;;;;;;;;;;4943329;29;20227;-32
2023/09/05 00:51:40;;;;;;;2.13;1.90;;;;;;;;;;4950487;29;20299;-32
2023/09/05 00:54:08;;;;;;;2.27;2.07;;;;;;;;;;4949932;29;20210;-31
2023/09/05 00:56:35;;;;;;;2.40;1.83;;;;;;;;;;4954841;29;20230;-32
2023/09/05 00:59:03;;;;;;;2.60;2.07;;;;;;;;;;4955082;28;20223;-32
2023/09/05 01:01:32;;;;;;;3.13;2.00;;;;;;;;;;4950528;29;20211;-30
2023/09/05 01:03:59;;;;;;;2.30;2.10;;;;;;;;;;4955866;28;20206;-29
2023/09/05 01:06:33;;;;;;;2.20;2.00;;;;;;;;;;4954827;29;20577;-30
2023/09/05 01:09:03;;;;;;;2.13;1.93;;;;;;;;;;4948469;29;20343;-30
2023/09/05 01:11:31;;;;;;;3.63;2.03;;;;;;;;;;4946234;29;20468;-32
2023/09/05 01:13:58;;;;;;;3.50;2.03;;;;;;;;;;4954120;29;20243;-29
2023/09/05 01:16:25;;;;;;;3.33;2.03;;;;;;;;;;4953550;29;20222;-34
2023/09/05 01:18:52;;;;;;;2.40;2.20;;;;;;;;;;4942891;29;20232;-30
2023/09/05 01:21:23;;;;;;;2.33;1.97;;;;;;;;;;4945343;29;20292;-32
2023/09/05 01:23:55;;;;;;;1.67;1.57;;;;;;;;;;4944883;29;20207;-33
2023/09/05 01:26:24;;;;;;;2.80;2.00;;;;;;;;;;4940451;29;20685;-31
2023/09/05 01:28:52;;;;;;;2.83;1.73;;;;;;;;;;4955537;28;20227;-31
2023/09/05 01:31:19;;;;;;;1.77;1.67;;;;;;;;;;4951897;29;20215;-32
2023/09/05 01:33:46;;;;;;;4.27;2.13;;;;;;;;;;4951912;29;20235;-33
2023/09/05 01:36:15;;;;;;;2.30;2.10;;;;;;;;;;4955041;28;20234;-29
2023/09/05 01:38:42;;;;;;;2.13;1.93;;;;;;;;;;4944075;28;20212;-30
2023/09/05 01:41:09;;;;;;;2.90;1.73;;;;;;;;;;4955616;29;20553;-29
2023/09/05 01:43:38;;;;;;;2.40;2.10;;;;;;;;;;4954732;29;20580;-33
2023/09/05 01:46:05;;;;;;;2.03;1.90;;;;;;;;;;4951818;29;20199;-27
2023/09/05 01:48:32;;;;;;;2.00;1.77;;;;;;;;;;4946194;28;20206;-29
2023/09/05 01:50:59;;;;;;;2.53;2.33;;;;;;;;;;4955204;29;20279;-29
2023/09/05 01:53:26;;;;;;;1.90;1.80;;;;;;;;;;4947877;29;20213;-28
2023/09/05 01:55:53;;;;;;;2.97;2.20;;;;;;;;;;4938681;29;20601;-31
2023/09/05 01:58:20;;;;;;;2.43;1.93;;;;;;;;;;4951513;29;20218;-30
2023/09/05 02:00:49;;;;;;;2.10;1.90;;;;;;;;;;4956805;28;20308;-30
2023/09/05 02:03:16;;;;;;;3.50;1.93;;;;;;;;;;4944014;29;20217;-31
2023/09/05 02:05:43;;;;;;;2.50;2.17;;;;;;;;;;4945082;29;20232;-31
2023/09/05 02:08:11;;;;;;;2.20;1.97;;;;;;;;;;4943723;29;20219;-32
2023/09/05 02:10:38;;;;;;;1.80;1.70;;;;;;;;;;4946605;28;20235;-29
2023/09/05 02:13:05;;;;;;;3.57;2.07;;;;;;;;;;4948355;29;20205;-31
2023/09/05 02:15:32;;;;;;;2.50;2.27;;;;;;;;;;4952201;29;20659;-33
2023/09/05 02:18:02;;;;;;;2.70;1.63;;;;;;;;;;4950437;29;20265;-29
2023/09/05 02:20:29;;;;;;;2.27;2.10;;;;;;;;;;4942934;28;20239;-31
2023/09/05 02:22:56;;;;;;;2.23;2.00;;;;;;;;;;4952657;29;20206;-32
2023/09/05 02:25:23;;;;;;;2.97;2.03;;;;;;;;;;4943731;29;20222;-29
2023/09/05 02:27:51;;;;;;;2.20;2.00;;;;;;;;;;4952873;29;20206;-30
2023/09/05 02:30:18;;;;;;;2.20;2.00;;;;;;;;;;4952002;28;20229;-32
2023/09/05 02:32:45;;;;;;;2.60;1.73;;;;;;;;;;4942126;29;20206;-28
2023/09/05 02:35:14;;;;;;;2.17;1.97;;;;;;;;;;4942775;29;20206;-31
2023/09/05 02:37:41;;;;;;;2.37;1.90;;;;;;;;;;4951778;29;20226;-31
2023/09/05 02:40:09;;;;;;;2.27;2.13;;;;;;;;;;4947484;28;20235;-30
2023/09/05 02:42:37;;;;;;;2.10;1.90;;;;;;;;;;4943838;29;20222;-32
2023/09/05 02:45:04;;;;;;;2.97;2.00;;;;;;;;;;4952494;29;20202;-31
2023/09/05 02:47:31;;;;;;;1.97;1.77;;;;;;;;;;4947596;28;20222;-28
2023/09/05 02:49:58;;;;;;;2.37;2.17;;;;;;;;;;4952017;28;20512;-30
2023/09/05 02:52:27;;;;;;;2.00;1.80;;;;;;;;;;4951987;29;20203;-29
2023/09/05 02:54:54;;;;;;;3.20;1.90;;;;;;;;;;4946191;29;20198;-30
2023/09/05 02:57:21;;;;;;;4.47;2.30;;;;;;;;;;4951415;29;20226;-32
2023/09/05 02:59:48;;;;;;;2.43;2.03;;;;;;;;;;4951981;28;20235;-31
2023/09/05 03:02:15;;;;;;;2.03;1.80;;;;;;;;;;4942436;29;20206;-30
2023/09/05 03:04:43;;;;;;;2.33;2.13;;;;;;;;;;4951417;29;20207;-30
2023/09/05 03:07:10;;;;;;;4.90;1.87;;;;;;;;;;4952057;29;20214;-29
2023/09/05 03:09:38;;;;;;;3.30;2.10;;;;;;;;;;4940634;29;20726;-30
2023/09/05 03:12:06;;;;;;;2.40;2.07;;;;;;;;;;4951468;29;20290;-32
2023/09/05 03:14:35;;;;;;;3.67;1.60;;;;;;;;;;4953278;29;20211;-30
2023/09/05 03:17:04;;;;;;;2.03;1.93;;;;;;;;;;4946769;29;20230;-31
2023/09/05 03:19:32;;;;;;;2.20;2.00;;;;;;;;;;4944622;29;20230;-30
2023/09/05 03:21:59;;;;;;;1.90;1.80;;;;;;;;;;4955510;29;20211;-29
2023/09/05 03:24:27;;;;;;;2.43;2.00;;;;;;;;;;4943265;29;20212;-34
2023/09/05 03:26:55;;;;;;;3.07;2.00;;;;;;;;;;4955566;29;20203;-30
2023/09/05 03:29:23;;;;;;;2.27;2.00;;;;;;;;;;4951767;28;20227;-30
2023/09/05 03:31:50;;;;;;;2.13;1.93;;;;;;;;;;4949763;29;20289;-33
2023/09/05 03:34:17;;;;;;;2.40;2.20;;;;;;;;;;4946939;29;20210;-32
2023/09/05 03:36:44;;;;;;;2.53;2.17;;;;;;;;;;4950450;29;20237;-30
2023/09/05 03:39:11;;;;;;;2.30;2.10;;;;;;;;;;4943553;28;20230;-31
2023/09/05 03:41:38;;;;;;;2.23;2.07;;;;;;;;;;4949769;29;20215;-31
2023/09/05 03:44:07;;;;;;;2.20;2.00;;;;;;;;;;4951868;29;20215;-32
2023/09/05 03:46:34;;;;;;;1.80;1.70;;;;;;;;;;4951197;29;20233;-30
2023/09/05 03:51:41;;;;;;;5.30;2.10;;;;;;;;;;5359731;23;20242;-45
2023/09/05 03:54:12;;;;;;;2.47;2.10;;;;;;;;;;4965107;28;20296;-45
2023/09/05 03:56:44;;;;;;;2.50;1.70;;;;;;;;;;4968294;28;20231;-41
2023/09/05 03:59:25;;;;;;;1.83;1.73;;;;;;;;;;4970049;28;20232;-45
2023/09/05 04:01:57;;;;;;;4.57;1.97;;;;;;;;;;4959689;28;20209;-41
2023/09/05 04:04:38;;;;;;;2.80;1.73;;;;;;;;;;4950214;29;20206;-45
2023/09/05 04:07:47;;;;;;;1.83;1.60;;;;;;;;;;4959163;28;20212;-44
2023/09/05 04:10:38;;;;;;;2.10;1.93;;;;;;;;;;4951399;29;20226;-41
2023/09/05 04:13:32;;;;;;;2.53;2.00;;;;;;;;;;4952842;29;20207;-45
2023/09/05 04:16:09;;;;;;;1.70;1.60;;;;;;;;;;4958757;28;20215;-42
2023/09/05 04:18:49;;;;;;;2.03;1.90;;;;;;;;;;4955028;28;20296;-43
2023/09/05 04:21:23;;;;;;;1.83;1.73;;;;;;;;;;4955068;28;20619;-43
2023/09/05 04:23:52;;;;;;;2.00;1.80;;;;;;;;;;4956457;29;20214;-40
2023/09/05 04:26:33;;;;;;;2.03;1.87;;;;;;;;;;4959350;28;20309;-40
2023/09/05 04:29:24;;;;;;;2.03;1.90;;;;;;;;;;4952590;28;20230;-41
2023/09/05 04:34:42;;;;;;;4.10;2.17;;;;;;;;;;5715175;23;20237;-42
2023/09/05 04:37:20;;;;;;;3.73;2.17;;;;;;;;;;4977338;28;20226;-41
2023/09/05 04:39:56;;;;;;;3.23;2.47;;;;;;;;;;4964850;28;20225;-43
2023/09/05 04:42:39;;;;;;;3.80;2.10;;;;;;;;;;4960454;29;20203;-43
2023/09/05 04:51:25;;;;;;;2.07;1.80;;;;;;;;;;5434396;23;20219;31
2023/09/05 04:54:13;;;;;;;2.30;1.80;;;;;;;;;;4933162;29;20277;-41
2023/09/05 04:56:51;;;;;;;2.77;1.83;;;;;;;;;;4938023;29;20217;-43
2023/09/05 04:59:27;;;;;;;3.37;1.90;;;;;;;;;;4939217;29;20250;-42
2023/09/05 05:02:05;;;;;;;1.93;1.73;;;;;;;;;;4931673;29;20206;-42
2023/09/05 05:04:42;;;;;;;2.03;1.87;;;;;;;;;;4936541;29;20229;-44
2023/09/05 05:07:14;;;;;;;2.03;1.63;;;;;;;;;;4928251;29;20258;-42
2023/09/05 05:09:54;;;;;;;2.17;1.97;;;;;;;;;;4921199;29;20242;-42
2023/09/05 05:12:26;;;;;;;2.00;1.90;;;;;;;;;;4929559;29;20278;-44
2023/09/05 05:15:19;;;;;;;2.27;1.67;;;;;;;;;;5038464;22;20260;-40
2023/09/05 05:18:00;;;;;;;1.73;1.63;;;;;;;;;;4979736;28;20233;-39
2023/09/05 05:20:35;;;;;;;3.67;2.00;;;;;;;;;;4973637;28;20237;-40
2023/09/05 05:23:07;;;;;;;3.83;2.23;;;;;;;;;;4976674;28;20473;-44
2023/09/05 05:25:43;;;;;;;3.57;2.17;;;;;;;;;;4967582;28;20268;-42
2023/09/05 05:28:21;;;;;;;1.70;1.60;;;;;;;;;;4976467;28;20217;-42
2023/09/05 05:30:54;;;;;;;2.33;2.13;;;;;;;;;;4973870;28;20329;-43
2023/09/05 05:33:26;;;;;;;2.10;1.90;;;;;;;;;;4973407;28;20493;-36
2023/09/05 05:35:58;;;;;;;2.07;1.93;;;;;;;;;;4976760;28;20210;-40
2023/09/05 05:38:31;;;;;;;3.17;2.20;;;;;;;;;;4974349;28;20214;-43
2023/09/05 05:41:02;;;;;;;2.37;2.13;;;;;;;;;;4974146;28;20218;-39
2023/09/05 05:43:37;;;;;;;4.00;1.80;;;;;;;;;;4975831;28;20241;-38
2023/09/05 05:46:10;;;;;;;3.13;1.60;;;;;;;;;;4970167;28;20205;-44
2023/09/05 05:48:40;;;;;;;3.67;1.70;;;;;;;;;;4972182;28;20206;-42
2023/09/05 05:51:13;;;;;;;1.90;1.80;;;;;;;;;;4976060;28;20211;-42
2023/09/05 05:53:46;;;;;;;2.10;1.90;;;;;;;;;;4974290;28;20205;-44
2023/09/05 05:56:22;;;;;;;3.27;2.00;;;;;;;;;;4979764;28;20237;-44
2023/09/05 05:59:10;;;;;;;2.03;1.93;;;;;;;;;;4975289;28;20236;-41
2023/09/05 06:01:44;;;;;;;1.80;1.70;;;;;;;;;;4971770;28;20273;-41
2023/09/05 06:04:23;;;;;;;3.03;1.90;;;;;;;;;;4968441;28;20229;-45
2023/09/05 06:06:59;;;;;;;3.43;2.20;;;;;;;;;;4976173;28;20215;-45
2023/09/05 06:09:32;;;;;;;1.97;1.87;;;;;;;;;;4969935;28;20232;-36
2023/09/05 06:12:04;;;;;;;2.63;1.90;;;;;;;;;;4969104;28;20284;-43
2023/09/05 06:14:41;;;;;;;2.13;1.90;;;;;;;;;;4975950;28;20281;-43
2023/09/05 06:17:22;;;;;;;2.67;2.40;;;;;;;;;;4970035;28;20327;-41
2023/09/05 06:20:00;;;;;;;2.87;1.93;;;;;;;;;;4974510;28;20224;-41
2023/09/05 06:22:33;;;;;;;3.83;2.13;;;;;;;;;;4976526;28;20214;-40
2023/09/05 06:25:10;;;;;;;3.97;2.10;;;;;;;;;;4969500;28;20202;-39
2023/09/05 06:27:55;;;;;;;3.30;2.17;;;;;;;;;;4975812;28;20291;-42
2023/09/05 06:30:42;;;;;;;3.27;2.00;;;;;;;;;;4971814;28;20218;-42
2023/09/05 06:33:17;;;;;;;2.13;1.93;;;;;;;;;;4969137;28;20212;-45
2023/09/05 06:35:50;;;;;;;2.20;2.00;;;;;;;;;;4974250;28;20275;-45
2023/09/05 06:38:26;;;;;;;2.00;1.80;;;;;;;;;;4973347;28;20232;-41
2023/09/05 06:41:00;;;;;;;2.57;2.00;;;;;;;;;;4975595;28;20201;-44
2023/09/05 06:43:38;;;;;;;3.57;2.00;;;;;;;;;;4975368;28;20256;-41
2023/09/05 06:46:14;;;;;;;1.70;1.60;;;;;;;;;;4968083;28;20205;-44
2023/09/05 06:48:47;;;;;;;2.07;1.97;;;;;;;;;;4965513;28;20214;-44
2023/09/05 06:51:22;;;;;;;4.50;1.90;;;;;;;;;;4975573;28;20252;-40
2023/09/05 06:53:57;;;;;;;2.73;1.80;;;;;;;;;;4974128;28;20261;-37
2023/09/05 06:56:36;;;;;;;5.90;2.13;;;;;;;;;;4973585;28;20208;-42
2023/09/05 06:59:17;;;;;;;2.73;2.10;;;;;;;;;;4975160;28;20232;-43
2023/09/05 07:01:52;;;;;;;2.30;2.10;;;;;;;;;;4966745;28;20235;-43
2023/09/05 07:04:23;;;;;;;5.00;1.93;;;;;;;;;;4969584;28;20213;-45
2023/09/05 07:06:57;;;;;;;2.90;2.10;;;;;;;;;;4974910;28;20307;-44
2023/09/05 07:09:36;;;;;;;2.40;2.20;;;;;;;;;;4971386;28;20244;-42
2023/09/05 07:12:06;;;;;;;2.37;2.17;;;;;;;;;;4975492;28;20211;-40
2023/09/05 07:14:35;;;;;;;4.70;2.37;;;;;;;;;;4973595;28;20222;-39
2023/09/05 07:17:10;;;;;;;2.50;2.30;;;;;;;;;;4971371;28;20279;-42
2023/09/05 07:19:40;;;;;;;2.07;1.87;;;;;;;;;;4972184;28;20247;-40
2023/09/05 07:22:08;;;;;;;3.13;2.03;;;;;;;;;;4973205;28;20207;-42
2023/09/05 07:24:39;;;;;;;4.77;2.23;;;;;;;;;;4967286;28;20286;-42
2023/09/05 07:27:15;;;;;;;4.43;1.90;;;;;;;;;;4971845;28;20219;-43
2023/09/05 07:29:46;;;;;;;2.33;2.13;;;;;;;;;;4973117;28;20254;-43
2023/09/05 07:32:17;;;;;;;1.90;1.70;;;;;;;;;;4970507;28;20212;-43
2023/09/05 07:34:50;;;;;;;2.40;1.90;;;;;;;;;;4967781;28;20218;-42
2023/09/05 07:37:22;;;;;;;2.00;1.90;;;;;;;;;;4973751;28;20290;-37
2023/09/05 07:40:33;;;;;;;2.57;2.17;;;;;;;;;;4968747;28;20263;-39
2023/09/05 07:43:26;;;;;;;2.07;1.83;;;;;;;;;;4969757;28;20219;-43
2023/09/05 07:46:21;;;;;;;3.67;2.13;;;;;;;;;;4972902;28;20204;-43
2023/09/05 07:52:27;;;;;;;2.17;2.00;;;;;;;;;;4948017;28;20299;-40
2023/09/05 07:55:31;;;;;;;3.07;1.70;;;;;;;;;;4949927;28;20205;-39
2023/09/05 07:58:18;;;;;;;1.83;1.73;;;;;;;;;;4952090;28;20230;-42
2023/09/05 08:00:54;;;;;;;1.70;1.60;;;;;;;;;;4958380;28;20242;-44
2023/09/05 08:03:25;;;;;;;2.00;1.80;;;;;;;;;;4949081;28;20214;-41
2023/09/05 08:06:01;;;;;;;2.67;1.83;;;;;;;;;;4947995;28;20213;-43
2023/09/05 08:08:33;;;;;;;2.40;1.60;;;;;;;;;;4947713;28;20263;-44
2023/09/05 08:11:09;;;;;;;2.10;2.00;;;;;;;;;;4955868;28;20262;-44
2023/09/05 08:13:42;;;;;;;2.13;1.97;;;;;;;;;;4954601;28;20211;-42
2023/09/05 08:16:15;;;;;;;2.27;1.87;;;;;;;;;;4951178;28;20298;-46
2023/09/05 08:18:48;;;;;;;3.80;1.73;;;;;;;;;;4946764;29;20228;-41
2023/09/05 08:24:28;;;;;;;2.40;1.93;;;;;;;;;;4960539;28;20207;-38
2023/09/05 08:27:15;;;;;;;2.13;1.70;;;;;;;;;;4960175;28;20226;-44
2023/09/05 08:29:49;;;;;;;2.83;1.80;;;;;;;;;;4958663;28;20222;-40
2023/09/05 08:32:34;;;;;;;3.20;1.77;;;;;;;;;;4962544;28;20251;-39
2023/09/05 08:35:17;;;;;;;2.13;1.40;;;;;;;;;;4958543;28;20224;-45
2023/09/05 08:37:57;;;;;;;2.07;1.50;;;;;;;;;;4962081;28;20216;-37
2023/09/05 08:40:28;;;;;;;1.73;1.60;;;;;;;;;;4959975;28;20236;-39
2023/09/05 08:43:10;;;;;;;1.93;1.67;;;;;;;;;;4957700;28;20215;-44
2023/09/05 08:45:46;;;;;;;2.23;1.80;;;;;;;;;;4958174;28;20216;-45
2023/09/05 08:48:16;;;;;;;1.88;1.75;;;;;;;;;;4952296;28;20208;-42
2023/09/05 08:50:54;;;;;;;1.80;1.70;;;;;;;;;;4960921;28;20232;-40
2023/09/05 08:53:34;;;;;;;1.87;1.70;;;;;;;;;;4964805;28;20251;-45
2023/09/05 08:56:15;;;;;;;1.60;1.50;;;;;;;;;;4961718;28;20200;-40
2023/09/05 08:58:53;;;;;;;3.05;1.70;;;;;;;;;;4965479;28;20232;-39
2023/09/05 09:01:26;;;;;;;2.35;1.55;;;;;;;;;;4964980;28;20223;-41
2023/09/05 09:04:14;;;;;;;;;;;;;;;;;;;;;
2023/09/05 09:06:48;;;;;;;2.92;1.55;;;;;;;;;;4967929;28;20221;-45
2023/09/05 09:09:47;;;;;;;3.72;1.70;;;;;;;;;;4960244;28;20229;-42
2023/09/05 09:12:34;;;;;;;2.50;1.80;;;;;;;;;;4951564;28;20229;-40
2023/09/05 09:15:15;;;;;;;1.70;1.60;;;;;;;;;;4965596;28;20240;-44
2023/09/05 09:17:53;;;;;;;1.55;1.45;;;;;;;;;;4960432;28;20268;-43
2023/09/05 09:20:27;;;;;;;1.98;1.67;;;;;;;;;;4963450;28;20583;-44
2023/09/05 09:23:19;;;;;;;1.60;1.50;;;;;;;;;;4964100;28;20204;-43
2023/09/05 09:32:19;;;;;;;1.40;1.30;;;;;;;;;;4975262;28;20229;-36
2023/09/05 09:35:10;;;;;;;1.70;1.38;;;;;;;;;;4968763;28;20223;-33
2023/09/05 09:40:40;;;;;;;1.52;1.42;;;;;;;;;;4968132;23;20290;-36
2023/09/05 09:43:14;;;;;;;2.47;1.45;;;;;;;;;;4956585;28;20227;-33
2023/09/05 09:45:49;;;;;;;1.40;1.30;;;;;;;;;;4949561;29;20212;-35
2023/09/05 09:48:26;;;;;;;1.70;1.60;;;;;;;;;;4949710;29;20254;-33
2023/09/05 09:51:17;;;;;;;2.67;1.33;;;;;;;;;;4935257;29;20313;-32
2023/09/05 09:53:52;;;;;;;3.08;1.40;;;;;;;;;;4931978;28;20220;-34
2023/09/05 09:56:22;;;;;;;1.70;1.60;;;;;;;;;;4927059;29;20295;-34
2023/09/05 09:58:59;;;;;;;2.22;1.30;;;;;;;;;;4930541;29;20236;-35
2023/09/05 10:01:30;;;;;;;1.50;1.40;;;;;;;;;;4924635;29;20212;-35
2023/09/05 10:04:07;;;;;;;1.40;1.30;;;;;;;;;;4930186;29;20213;-37
2023/09/05 10:06:40;;;;;;;2.45;1.50;;;;;;;;;;4937233;29;20239;-33
2023/09/05 10:09:16;;;;;;;2.45;1.60;;;;;;;;;;4926383;29;20228;-32
2023/09/05 10:11:52;;;;;;;1.55;1.45;;;;;;;;;;4927116;29;20235;-37
2023/09/05 10:14:24;;;;;;;1.63;1.50;;;;;;;;;;4936728;29;20590;-33
2023/09/05 10:16:54;;;;;;;1.60;1.50;;;;;;;;;;4935792;29;20224;-33
2023/09/05 10:19:27;;;;;;;2.28;1.65;;;;;;;;;;4936702;29;20254;-35
2023/09/05 10:21:57;;;;;;;3.10;1.80;;;;;;;;;;4929856;29;20214;-34
2023/09/05 10:24:26;;;;;;;1.90;1.52;;;;;;;;;;5173582;23;21319;-32
2023/09/05 10:29:43;;;;;;;2.08;1.42;;;;;;;;;;6077140;22;20184;-31
2023/09/05 10:32:12;;;;;;;2.33;1.52;;;;;;;;;;5081466;23;20274;-37
2023/09/05 10:35:05;;;;;;;2.53;1.70;;;;;;;;;;4970776;28;20290;-33
2023/09/05 10:37:45;;;;;;;1.30;1.20;;;;;;;;;;4977633;28;20303;-35
2023/09/05 10:40:17;;;;;;;3.05;1.73;;;;;;;;;;4966465;28;20240;-33
2023/09/05 10:42:51;;;;;;;2.33;1.60;;;;;;;;;;4975232;28;20222;-36
2023/09/05 10:45:35;;;;;;;2.17;1.73;;;;;;;;;;4974937;28;20206;-35
2023/09/05 10:48:10;;;;;;;1.90;1.65;;;;;;;;;;4966356;28;20219;-35
2023/09/05 10:51:01;;;;;;;1.48;1.38;;;;;;;;;;4970461;28;20235;-33
2023/09/05 10:53:39;;;;;;;4.75;1.70;;;;;;;;;;4965613;28;20220;-32
2023/09/05 10:56:29;;;;;;;1.35;1.27;;;;;;;;;;4965903;28;20219;-36
2023/09/05 10:58:58;;;;;;;1.50;1.40;;;;;;;;;;4973915;28;20234;-35
2023/09/05 11:01:47;;;;;;;1.77;1.67;;;;;;;;;;4973032;28;20271;-34
2023/09/05 11:04:41;;;;;;;5.65;2.53;;;;;;;;;;4973256;28;20205;-34
2023/09/05 11:07:21;;;;;;;2.55;1.35;;;;;;;;;;4974030;28;20229;-34
2023/09/05 11:09:55;;;;;;;3.58;1.48;;;;;;;;;;4962889;28;20229;-33
2023/09/05 11:12:25;;;;;;;1.85;1.40;;;;;;;;;;4966968;28;20216;-33
2023/09/05 11:14:57;;;;;;;1.65;1.55;;;;;;;;;;4974729;28;20230;-33
2023/09/05 11:17:31;;;;;;;3.05;1.63;;;;;;;;;;4971631;28;20288;-35
2023/09/05 11:20:07;;;;;;;1.70;1.42;;;;;;;;;;4968090;28;20299;-34
2023/09/05 11:22:47;;;;;;;1.20;1.20;;;;;;;;;;4974837;28;20213;-34
2023/09/05 11:25:32;;;;;;;1.40;1.30;;;;;;;;;;4965788;28;20210;-36
2023/09/05 11:28:08;;;;;;;1.77;1.48;;;;;;;;;;4972107;28;20328;-37
2023/09/05 11:30:43;;;;;;;1.85;1.75;;;;;;;;;;4972378;28;20235;-35
2023/09/05 11:33:31;;;;;;;4.70;1.40;;;;;;;;;;4966542;28;20213;-33
2023/09/05 11:36:14;;;;;;;2.40;1.48;;;;;;;;;;4972023;28;20245;-36
2023/09/05 11:50:45;;;;;;;1.48;1.35;;;;;;;;;;5059957;23;20244;-32
2023/09/05 11:53:14;;;;;;;1.73;1.63;;;;;;;;;;4980906;28;20304;-31
2023/09/05 11:55:42;;;;;;;1.38;1.30;;;;;;;;;;4963713;28;20216;-33
2023/09/05 11:58:10;;;;;;;1.50;1.40;;;;;;;;;;4979775;28;20209;-32
2023/09/05 12:00:42;;;;;;;1.23;1.13;;;;;;;;;;4990007;28;20270;-34
2023/09/05 12:03:12;;;;;;;1.30;1.20;;;;;;;;;;4965536;28;20291;-29
2023/09/05 12:05:41;;;;;;;1.77;1.38;;;;;;;;;;4980777;28;20217;-30
2023/09/05 12:08:09;;;;;;;4.78;1.40;;;;;;;;;;4971510;28;20208;-34
2023/09/05 12:10:39;;;;;;;1.50;1.40;;;;;;;;;;4958054;28;20223;-32
2023/09/05 12:13:06;;;;;;;1.33;1.23;;;;;;;;;;4976884;28;20206;-32
2023/09/05 12:15:34;;;;;;;1.20;1.10;;;;;;;;;;4970462;28;20219;-33
2023/09/05 12:18:03;;;;;;;1.52;1.23;;;;;;;;;;4965132;28;20273;-33
2023/09/05 12:20:31;;;;;;;1.25;1.10;;;;;;;;;;4977664;28;20325;-31
2023/09/05 12:22:58;;;;;;;1.17;1.08;;;;;;;;;;4983242;28;20315;-33
2023/09/05 12:25:28;;;;;;;0.90;0.90;;;;;;;;;;4963573;28;20233;-31
2023/09/05 12:27:56;;;;;;;1.27;1.15;;;;;;;;;;4986975;28;20280;-31
2023/09/05 12:30:27;;;;;;;1.52;1.40;;;;;;;;;;4989884;28;20230;-33
2023/09/05 12:32:55;;;;;;;1.58;1.23;;;;;;;;;;4965478;28;20203;-33
2023/09/05 12:35:22;;;;;;;1.73;1.63;;;;;;;;;;4990407;28;20212;-32
2023/09/05 12:37:50;;;;;;;1.65;1.15;;;;;;;;;;4984086;28;20220;-33
2023/09/05 12:40:17;;;;;;;0.90;0.90;;;;;;;;;;4962115;28;20298;-30
2023/09/05 12:42:45;;;;;;;1.08;1.00;;;;;;;;;;4989011;28;20207;-30
2023/09/05 12:45:13;;;;;;;1.10;1.10;;;;;;;;;;4991526;28;20256;-32
2023/09/05 12:47:40;;;;;;;1.95;1.02;;;;;;;;;;4977469;28;20217;-30
2023/09/05 12:50:12;;;;;;;1.42;1.30;;;;;;;;;;4974936;28;20233;-33
2023/09/05 12:52:39;;;;;;;1.52;1.30;;;;;;;;;;4986298;28;20235;-32
2023/09/05 12:55:07;;;;;;;1.92;1.20;;;;;;;;;;4963720;28;20294;-28
2023/09/05 12:57:37;;;;;;;2.03;1.40;;;;;;;;;;4969232;28;20213;-33
2023/09/05 13:00:07;;;;;;;2.15;1.20;;;;;;;;;;4974480;28;20278;-33
2023/09/05 13:02:34;;;;;;;0.93;0.93;;;;;;;;;;4967521;28;20211;-30
2023/09/05 13:05:02;;;;;;;1.50;1.10;;;;;;;;;;4971535;28;20226;-30
2023/09/05 13:07:29;;;;;;;1.27;1.17;;;;;;;;;;4976593;28;20294;-33
2023/09/05 13:09:56;;;;;;;1.38;1.27;;;;;;;;;;4959816;28;20225;-31
2023/09/05 13:12:23;;;;;;;0.95;0.95;;;;;;;;;;4974269;28;20206;-33
2023/09/05 13:14:50;;;;;;;1.02;1.00;;;;;;;;;;4993400;28;20360;-33
2023/09/05 13:17:19;;;;;;;2.13;1.25;;;;;;;;;;4979330;28;20214;-32
2023/09/05 13:19:46;;;;;;;1.30;1.20;;;;;;;;;;4958797;28;20234;-31
2023/09/05 13:22:13;;;;;;;4.85;1.60;;;;;;;;;;4970514;28;20298;-34
2023/09/05 13:24:41;;;;;;;1.27;1.17;;;;;;;;;;4971671;28;20206;-29
2023/09/05 13:27:08;;;;;;;1.85;1.23;;;;;;;;;;4976973;28;20211;-30
2023/09/05 13:29:36;;;;;;;3.88;1.13;;;;;;;;;;4981895;28;20250;-31
2023/09/05 13:32:07;;;;;;;1.60;1.38;;;;;;;;;;4981751;28;20296;-34
2023/09/05 13:34:35;;;;;;;3.08;1.27;;;;;;;;;;4969823;28;20218;-31
2023/09/05 13:37:03;;;;;;;2.00;1.33;;;;;;;;;;4965908;28;20298;-29
2023/09/05 13:39:31;;;;;;;6.05;1.52;;;;;;;;;;4959073;28;20235;-31
2023/09/05 13:41:59;;;;;;;1.38;1.27;;;;;;;;;;4976735;28;20239;-33
2023/09/05 13:44:26;;;;;;;1.50;1.40;;;;;;;;;;4981049;28;20215;-31
2023/09/05 13:46:54;;;;;;;1.92;1.17;;;;;;;;;;4988493;28;20216;-31
2023/09/05 13:49:21;;;;;;;4.20;1.33;;;;;;;;;;4967349;28;20235;-31
2023/09/05 13:51:51;;;;;;;2.35;1.45;;;;;;;;;;4970848;28;20206;-32
2023/09/05 13:54:20;;;;;;;2.88;1.40;;;;;;;;;;4970459;28;20210;-31
2023/09/05 13:56:48;;;;;;;2.53;1.17;;;;;;;;;;4969650;28;20212;-31
2023/09/05 13:59:15;;;;;;;4.60;1.30;;;;;;;;;;4985490;28;20234;-30
2023/09/05 14:01:42;;;;;;;1.27;1.00;;;;;;;;;;4969530;28;20215;-34
2023/09/05 14:04:09;;;;;;;5.68;1.38;;;;;;;;;;4962714;28;20211;-34
2023/09/05 14:06:37;;;;;;;2.67;1.45;;;;;;;;;;4955314;28;20248;-33
2023/09/05 14:09:06;;;;;;;1.77;1.10;;;;;;;;;;4961989;28;20220;-32
2023/09/05 14:11:34;;;;;;;1.90;1.20;;;;;;;;;;4968430;28;20217;-31
2023/09/05 14:14:01;;;;;;;1.38;1.27;;;;;;;;;;4983616;28;20320;-32
2023/09/05 14:16:28;;;;;;;1.38;1.25;;;;;;;;;;4973786;28;20219;-33
2023/09/05 14:18:55;;;;;;;1.30;1.20;;;;;;;;;;4976036;28;20228;-30
2023/09/05 14:21:23;;;;;;;2.00;1.20;;;;;;;;;;4974847;28;20232;-33
2023/09/05 14:23:50;;;;;;;2.55;1.30;;;;;;;;;;4981639;28;20297;-30
2023/09/05 14:26:19;;;;;;;1.65;1.33;;;;;;;;;;4971477;28;20211;-31
2023/09/05 14:28:46;;;;;;;2.33;1.20;;;;;;;;;;4982627;28;20233;-31
2023/09/05 14:31:13;;;;;;;1.42;1.30;;;;;;;;;;4987420;28;20293;-31
2023/09/05 14:33:41;;;;;;;2.28;1.08;;;;;;;;;;4963608;28;20576;-31
2023/09/05 14:36:08;;;;;;;1.20;1.10;;;;;;;;;;4960914;28;20216;-31
2023/09/05 14:38:35;;;;;;;4.00;1.30;;;;;;;;;;4959775;28;20225;-33
2023/09/05 14:41:02;;;;;;;1.73;1.02;;;;;;;;;;4962416;28;20256;-31
2023/09/05 14:43:31;;;;;;;2.30;1.25;;;;;;;;;;4969160;28;20244;-34
2023/09/05 14:46:00;;;;;;;4.35;1.25;;;;;;;;;;4977448;28;20210;-35
2023/09/05 14:48:27;;;;;;;1.50;1.10;;;;;;;;;;4959626;28;20229;-32
2023/09/05 14:50:55;;;;;;;1.92;1.17;;;;;;;;;;4984213;28;20207;-34
2023/09/05 14:53:22;;;;;;;2.28;1.35;;;;;;;;;;4976360;28;20219;-31
2023/09/05 14:55:49;;;;;;;4.00;1.25;;;;;;;;;;4969129;28;20218;-33
2023/09/05 14:58:16;;;;;;;3.67;1.23;;;;;;;;;;4987386;28;20218;-34
2023/09/05 15:00:45;;;;;;;2.70;1.27;;;;;;;;;;4990334;28;20233;-34
2023/09/05 15:03:12;;;;;;;1.77;1.20;;;;;;;;;;4978027;28;20212;-34
2023/09/05 15:05:39;;;;;;;1.83;1.30;;;;;;;;;;4974760;28;20244;-34
2023/09/05 15:08:06;;;;;;;1.73;1.42;;;;;;;;;;4988864;28;20214;-31
2023/09/05 15:10:33;;;;;;;1.85;1.45;;;;;;;;;;4954676;28;20306;-31
2023/09/05 15:13:01;;;;;;;1.52;1.42;;;;;;;;;;4982389;28;20203;-31
2023/09/05 15:15:28;;;;;;;2.08;1.20;;;;;;;;;;4990515;28;20274;-33
2023/09/05 15:17:56;;;;;;;1.10;1.00;;;;;;;;;;4971808;28;20222;-30
2023/09/05 15:20:24;;;;;;;2.42;1.40;;;;;;;;;;4975109;28;20225;-31
2023/09/05 15:22:51;;;;;;;1.63;1.50;;;;;;;;;;4970614;28;20211;-34
2023/09/05 15:25:19;;;;;;;1.20;1.05;;;;;;;;;;4961855;28;20213;-34
2023/09/05 15:27:46;;;;;;;0.93;0.93;;;;;;;;;;4975805;28;20225;-34
2023/09/05 15:30:15;;;;;;;2.97;1.20;;;;;;;;;;4967086;28;20227;-31
2023/09/05 15:32:43;;;;;;;2.10;1.13;;;;;;;;;;4967158;28;20297;-34
2023/09/05 15:35:11;;;;;;;1.67;1.17;;;;;;;;;;4969913;28;20233;-32
2023/09/05 15:37:39;;;;;;;2.08;1.33;;;;;;;;;;4973389;28;20298;-34
2023/09/05 15:40:07;;;;;;;1.38;1.20;;;;;;;;;;4961537;28;20238;-33
2023/09/05 15:42:34;;;;;;;1.42;1.20;;;;;;;;;;4978965;28;20213;-33
2023/09/05 15:45:02;;;;;;;1.75;1.20;;;;;;;;;;4975637;28;20481;-32
2023/09/05 15:47:29;;;;;;;3.70;1.40;;;;;;;;;;4962129;28;20272;-29
2023/09/05 15:49:56;;;;;;;1.77;1.40;;;;;;;;;;4964762;28;20240;-33
2023/09/05 15:52:24;;;;;;;1.30;1.23;;;;;;;;;;4968696;28;20211;-32
2023/09/05 15:54:51;;;;;;;1.40;1.30;;;;;;;;;;4960930;28;20246;-30
2023/09/05 15:57:21;;;;;;;1.73;1.63;;;;;;;;;;4983287;28;20216;-31